createdAt,value
2018-05-26T00:02:50.654Z,21.2
2018-05-26T00:07:47.318Z,21
2018-05-26T00:12:44.372Z,21.1
2018-05-26T00:17:41.197Z,21
2018-05-26T00:22:38.422Z,21
2018-05-26T00:27:35.376Z,20.8
2018-05-26T00:32:32.756Z,20.9
2018-05-26T00:37:29.803Z,20.8
2018-05-26T00:42:27.169Z,20.7
2018-05-26T00:47:24.189Z,20.8
2018-05-26T00:52:21.367Z,20.8
2018-05-26T00:57:18.995Z,20.5
2018-05-26T01:02:16.167Z,20.6
2018-05-26T01:07:13.475Z,20.5
2018-05-26T01:12:10.667Z,20.5
2018-05-26T01:17:07.996Z,20.6
2018-05-26T01:22:05.144Z,20.4
2018-05-26T01:27:01.586Z,20.4
2018-05-26T01:31:58.992Z,20.5
2018-05-26T01:36:56.207Z,20.4
2018-05-26T01:41:53.415Z,20.2
2018-05-26T01:46:50.608Z,20.2
2018-05-26T01:51:47.695Z,20.1
2018-05-26T01:56:44.728Z,20.1
2018-05-26T02:01:42.001Z,20.1
2018-05-26T02:06:39.287Z,20.2
2018-05-26T02:11:36.770Z,19.9
2018-05-26T02:16:33.770Z,19.9
2018-05-26T02:21:31.112Z,20
2018-05-26T02:26:28.283Z,19.9
2018-05-26T02:31:25.725Z,19.9
2018-05-26T02:36:23.070Z,19.9
2018-05-26T02:41:20.258Z,19.8
2018-05-26T02:46:17.576Z,19.7
2018-05-26T02:51:14.806Z,19.8
2018-05-26T02:56:12.188Z,19.7
2018-05-26T03:01:09.451Z,19.8
2018-05-26T03:06:06.657Z,19.7
2018-05-26T03:11:03.976Z,19.7
2018-05-26T03:16:00.878Z,19.5
2018-05-26T03:20:58.164Z,19.6
2018-05-26T03:25:55.347Z,19.5
2018-05-26T03:30:52.389Z,19.6
2018-05-26T03:35:49.649Z,19.4
2018-05-26T03:40:47.188Z,19.6
2018-05-26T03:45:44.411Z,19.4
2018-05-26T03:50:41.887Z,19.5
2018-05-26T03:55:39.157Z,19.5
2018-05-26T04:00:36.627Z,19.5
2018-05-26T04:05:33.682Z,19.5
2018-05-26T04:10:30.750Z,19.4
2018-05-26T04:15:28.158Z,19.4
2018-05-26T04:20:25.518Z,19.3
2018-05-26T04:25:22.653Z,19.3
2018-05-26T04:30:20.014Z,19.3
2018-05-26T04:35:17.453Z,19.4
2018-05-26T04:40:14.440Z,19.2
2018-05-26T04:45:11.719Z,19.2
2018-05-26T04:50:08.797Z,19.2
2018-05-26T04:55:05.849Z,19.2
2018-05-26T05:00:03.173Z,19.2
2018-05-26T05:05:00.236Z,19.2
2018-05-26T05:09:57.433Z,19.2
2018-05-26T05:14:54.530Z,19.1
2018-05-26T05:19:51.545Z,19.1
2018-05-26T05:24:48.978Z,19.3
2018-05-26T05:29:46.137Z,19.3
2018-05-26T05:34:43.410Z,19.1
2018-05-26T05:39:40.482Z,19.1
2018-05-26T05:44:37.560Z,19.1
2018-05-26T05:49:34.997Z,19.1
2018-05-26T05:54:32.400Z,19.3
2018-05-26T05:59:29.921Z,19.2
2018-05-26T06:04:27.045Z,19.2
2018-05-26T06:09:24.337Z,19.2
2018-05-26T06:14:21.597Z,19.4
2018-05-26T06:19:19.116Z,19.3
2018-05-26T06:24:16.350Z,19.3
2018-05-26T06:29:13.749Z,19.3
2018-05-26T06:34:11.242Z,19.5
2018-05-26T06:39:08.562Z,19.4
2018-05-26T06:44:05.660Z,19.4
2018-05-26T06:49:03.210Z,19.3
2018-05-26T06:54:00.306Z,19.5
2018-05-26T06:58:57.754Z,19.6
2018-05-26T07:03:55.198Z,19.5
2018-05-26T07:08:52.646Z,19.7
2018-05-26T07:13:50.013Z,19.6
2018-05-26T07:18:47.217Z,19.6
2018-05-26T07:23:44.545Z,19.8
2018-05-26T07:28:42.161Z,19.7
2018-05-26T07:33:39.918Z,19.7
2018-05-26T07:38:37.111Z,19.9
2018-05-26T07:43:34.410Z,19.8
2018-05-26T07:48:31.716Z,19.9
2018-05-26T07:53:28.943Z,20
2018-05-26T07:58:26.092Z,19.9
2018-05-26T08:03:23.020Z,20
2018-05-26T08:08:20.285Z,20
2018-05-26T08:13:17.600Z,20.2
2018-05-26T08:18:15.029Z,20.3
2018-05-26T08:23:12.503Z,20.1
2018-05-26T08:28:09.973Z,20.4
2018-05-26T08:33:07.247Z,20.3
2018-05-26T08:38:04.406Z,20.3
2018-05-26T08:43:01.828Z,20.5
2018-05-26T08:47:58.450Z,20.4
2018-05-26T08:52:55.771Z,20.6
2018-05-26T08:57:53.066Z,20.5
2018-05-26T09:02:50.288Z,20.6
2018-05-26T09:07:47.673Z,20.8
2018-05-26T09:12:44.947Z,20.8
2018-05-26T09:17:42.356Z,20.9
2018-05-26T09:22:39.865Z,20.8
2018-05-26T09:27:37.340Z,21
2018-05-26T09:32:35.458Z,20.9
2018-05-26T09:37:33.474Z,21
2018-05-26T09:42:30.654Z,21
2018-05-26T09:47:27.750Z,21.1
2018-05-26T09:52:25.358Z,21
2018-05-26T09:57:22.509Z,21.3
2018-05-26T10:02:19.802Z,21.4
2018-05-26T10:07:17.481Z,21.5
2018-05-26T10:12:15.161Z,21.3
2018-05-26T10:17:12.470Z,21.6
2018-05-26T10:22:09.729Z,21.5
2018-05-26T10:27:06.933Z,21.6
2018-05-26T10:32:04.348Z,21.7
2018-05-26T10:37:01.315Z,21.7
2018-05-26T10:41:58.748Z,21.8
2018-05-26T10:46:56.047Z,21.9
2018-05-26T10:51:53.207Z,21.8
2018-05-26T10:56:50.418Z,21.9
2018-05-26T11:01:47.927Z,22.1
2018-05-26T11:06:44.752Z,22.1
2018-05-26T11:11:42.326Z,22.2
2018-05-26T11:16:40.200Z,22.2
2018-05-26T11:21:37.565Z,22.3
2018-05-26T11:26:34.883Z,22.3
2018-05-26T11:31:32.263Z,22.4
2018-05-26T11:36:29.421Z,22.4
2018-05-26T11:41:26.875Z,22.3
2018-05-26T11:46:24.563Z,22.4
2018-05-26T11:51:21.690Z,22.4
2018-05-26T11:56:18.891Z,22.5
2018-05-26T12:01:16.396Z,22.6
2018-05-26T12:06:13.549Z,22.7
2018-05-26T12:11:11.036Z,22.7
2018-05-26T12:16:08.449Z,22.6
2018-05-26T12:21:05.825Z,22.8
2018-05-26T12:26:02.965Z,22.8
2018-05-26T12:31:00.528Z,22.7
2018-05-26T12:35:57.936Z,22.8
2018-05-26T12:40:54.804Z,22.9
2018-05-26T12:45:52.296Z,22.9
2018-05-26T12:50:49.613Z,22.9
2018-05-26T12:55:47.055Z,22.9
2018-05-26T13:00:44.498Z,23
2018-05-26T13:05:41.860Z,23.1
2018-05-26T13:10:39.157Z,23.1
2018-05-26T13:15:36.997Z,23.1
2018-05-26T13:20:34.476Z,23.1
2018-05-26T13:25:32.000Z,23.1
2018-05-26T13:30:29.536Z,23.2
2018-05-26T13:35:26.932Z,23.2
2018-05-26T13:40:24.292Z,23.1
2018-05-26T13:45:21.867Z,23.2
2018-05-26T13:50:18.830Z,23.2
2018-05-26T13:55:16.221Z,23.3
2018-05-26T14:00:13.104Z,23.3
2018-05-26T14:05:10.340Z,23.4
2018-05-26T14:10:07.707Z,23.4
2018-05-26T14:15:05.178Z,23.4
2018-05-26T14:20:02.686Z,23.5
2018-05-26T14:25:00.259Z,23.5
2018-05-26T14:29:57.765Z,23.4
2018-05-26T14:34:55.505Z,23.5
2018-05-26T14:39:52.968Z,23.6
2018-05-26T14:44:50.358Z,23.6
2018-05-26T14:49:47.699Z,23.6
2018-05-26T14:54:45.374Z,23.6
2018-05-26T14:59:42.934Z,23.7
2018-05-26T15:04:40.299Z,23.8
2018-05-26T15:09:37.707Z,23.8
2018-05-26T15:14:35.340Z,23.8
2018-05-26T15:19:32.553Z,23.9
2018-05-26T15:24:30.214Z,23.8
2018-05-26T15:29:27.561Z,23.9
2018-05-26T15:34:24.357Z,24
2018-05-26T15:39:21.974Z,23.9
2018-05-26T15:44:19.206Z,24
2018-05-26T15:49:16.094Z,23.9
2018-05-26T15:54:13.463Z,24
2018-05-26T15:59:10.921Z,24
2018-05-26T16:04:08.384Z,24.1
2018-05-26T16:09:05.817Z,24.1
2018-05-26T16:14:03.296Z,24.1
2018-05-26T16:19:00.858Z,24.1
2018-05-26T16:23:58.265Z,24.1
2018-05-26T16:28:55.650Z,24
2018-05-26T16:33:53.528Z,24.1
2018-05-26T16:38:51.215Z,24
2018-05-26T16:43:48.450Z,24.2
2018-05-26T16:48:46.061Z,24.2
2018-05-26T16:53:43.792Z,24.2
2018-05-26T16:58:41.225Z,24.2
2018-05-26T17:03:38.781Z,24.1
2018-05-26T17:08:36.071Z,24.2
2018-05-26T17:13:33.297Z,24.2
2018-05-26T17:18:31.005Z,24.2
2018-05-26T17:23:28.332Z,24.2
2018-05-26T17:28:25.859Z,24.1
2018-05-26T17:33:23.436Z,24.2
2018-05-26T17:38:20.946Z,24.2
2018-05-26T17:43:18.365Z,24.2
2018-05-26T17:48:15.948Z,24.1
2018-05-26T17:53:13.516Z,24.1
2018-05-26T17:58:10.902Z,24.2
2018-05-26T18:03:08.609Z,24.2
2018-05-26T18:08:06.171Z,24.1
2018-05-26T18:13:03.512Z,24.2
2018-05-26T18:18:00.979Z,24.2
2018-05-26T18:22:58.334Z,24
2018-05-26T18:27:55.275Z,24
2018-05-26T18:32:52.507Z,24.1
2018-05-26T18:37:49.852Z,24.1
2018-05-26T18:42:47.342Z,24
2018-05-26T18:47:44.397Z,24.1
2018-05-26T18:52:41.781Z,24
2018-05-26T18:57:39.170Z,24.1
2018-05-26T19:02:36.748Z,24
2018-05-26T19:07:34.206Z,23.9
2018-05-26T19:12:31.590Z,24
2018-05-26T19:17:28.987Z,24
2018-05-26T19:22:26.748Z,23.9
2018-05-26T19:27:24.265Z,23.9
2018-05-26T19:32:22.135Z,23.9
2018-05-26T19:37:19.581Z,23.9
2018-05-26T19:42:17.312Z,23.7
2018-05-26T19:47:14.613Z,23.8
2018-05-26T19:52:12.724Z,23.7
2018-05-26T19:57:10.172Z,23.8
2018-05-26T20:02:08.004Z,23.6
2018-05-26T20:07:05.549Z,23.7
2018-05-26T20:12:03.119Z,23.7
2018-05-26T20:17:00.007Z,23.6
2018-05-26T20:21:57.280Z,23.6
2018-05-26T20:26:54.668Z,23.6
2018-05-26T20:31:52.482Z,23.5
2018-05-26T20:36:49.838Z,23.5
2018-05-26T20:41:47.174Z,23.5
2018-05-26T20:46:44.736Z,23.4
2018-05-26T20:51:41.556Z,23.4
2018-05-26T20:56:38.885Z,23.4
2018-05-26T21:01:36.621Z,23.2
2018-05-26T21:06:34.029Z,23.3
2018-05-26T21:11:31.487Z,23.3
2018-05-26T21:16:28.386Z,23.2
2018-05-26T21:21:25.994Z,23.2
2018-05-26T21:26:23.541Z,23.1
2018-05-26T21:31:21.050Z,23
2018-05-26T21:36:18.490Z,23
2018-05-26T21:41:15.701Z,23
2018-05-26T21:46:13.136Z,22.9
2018-05-26T21:51:10.875Z,23
2018-05-26T21:56:08.278Z,22.8
2018-05-26T22:01:05.025Z,22.8
2018-05-26T22:06:02.323Z,22.8
2018-05-26T22:10:59.798Z,22.7
2018-05-26T22:15:57.065Z,22.7
2018-05-26T22:20:54.237Z,22.6
2018-05-26T22:25:51.601Z,22.6
2018-05-26T22:30:48.829Z,22.6
2018-05-26T22:35:46.013Z,22.5
2018-05-26T22:40:43.230Z,22.5
2018-05-26T22:45:40.648Z,22.6
2018-05-26T22:50:37.834Z,22.4
2018-05-26T22:55:35.081Z,22.4
2018-05-26T23:00:32.490Z,22.3
2018-05-26T23:05:29.766Z,22.3
2018-05-26T23:10:27.021Z,22.3
2018-05-26T23:15:24.323Z,22.2
2018-05-26T23:20:21.504Z,22.3
2018-05-26T23:25:18.701Z,22.2
2018-05-26T23:30:16.008Z,22.3
2018-05-26T23:35:13.373Z,22.1
2018-05-26T23:40:10.503Z,22.1
2018-05-26T23:45:07.550Z,22.1
2018-05-26T23:50:04.934Z,22.1
2018-05-26T23:55:02.042Z,22
2018-05-26T23:59:59.311Z,21.9
